sensor_id;sensor_type;location;lat;lon;timestamp;P1;durP1;ratioP1;P2;durP2;ratioP2
3307;SDS011;1666;48.898;9.182;2022-09-02T00:02:01;7.43;;;5.13;;
3307;SDS011;1666;48.898;9.182;2022-09-02T00:04:32;6.97;;;5.13;;
3307;SDS011;1666;48.898;9.182;2022-09-02T00:07:02;5.40;;;4.90;;
3307;SDS011;1666;48.898;9.182;2022-09-02T00:09:33;5.85;;;5.25;;
3307;SDS011;1666;48.898;9.182;2022-09-02T00:12:03;5.80;;;5.20;;
3307;SDS011;1666;48.898;9.182;2022-09-02T00:14:35;7.15;;;5.53;;
3307;SDS011;1666;48.898;9.182;2022-09-02T00:17:08;5.13;;;4.72;;
3307;SDS011;1666;48.898;9.182;2022-09-02T00:19:38;5.68;;;4.95;;
3307;SDS011;1666;48.898;9.182;2022-09-02T00:22:08;5.75;;;5.10;;
3307;SDS011;1666;48.898;9.182;2022-09-02T00:24:38;5.53;;;5.03;;
3307;SDS011;1666;48.898;9.182;2022-09-02T00:27:08;7.57;;;5.53;;
3307;SDS011;1666;48.898;9.182;2022-09-02T00:29:38;5.78;;;5.13;;
3307;SDS011;1666;48.898;9.182;2022-09-02T00:32:10;6.53;;;5.78;;
3307;SDS011;1666;48.898;9.182;2022-09-02T00:34:40;7.43;;;5.72;;
3307;SDS011;1666;48.898;9.182;2022-09-02T00:37:10;5.75;;;5.25;;
3307;SDS011;1666;48.898;9.182;2022-09-02T00:39:41;5.97;;;5.25;;
3307;SDS011;1666;48.898;9.182;2022-09-02T00:42:11;5.90;;;5.30;;
3307;SDS011;1666;48.898;9.182;2022-09-02T00:44:41;5.43;;;4.93;;
3307;SDS011;1666;48.898;9.182;2022-09-02T00:47:14;5.05;;;4.50;;
3307;SDS011;1666;48.898;9.182;2022-09-02T00:49:46;5.82;;;5.10;;
3307;SDS011;1666;48.898;9.182;2022-09-02T00:52:20;5.53;;;5.05;;
3307;SDS011;1666;48.898;9.182;2022-09-02T00:54:55;6.88;;;5.75;;
3307;SDS011;1666;48.898;9.182;2022-09-02T00:57:27;6.05;;;5.47;;
3307;SDS011;1666;48.898;9.182;2022-09-02T01:00:04;6.15;;;5.55;;
3307;SDS011;1666;48.898;9.182;2022-09-02T01:02:38;7.03;;;5.68;;
3307;SDS011;1666;48.898;9.182;2022-09-02T01:05:10;6.22;;;5.10;;
3307;SDS011;1666;48.898;9.182;2022-09-02T01:07:42;6.30;;;5.70;;
3307;SDS011;1666;48.898;9.182;2022-09-02T01:10:14;6.00;;;5.40;;
3307;SDS011;1666;48.898;9.182;2022-09-02T01:12:46;5.50;;;4.97;;
3307;SDS011;1666;48.898;9.182;2022-09-02T01:15:17;5.28;;;4.78;;
3307;SDS011;1666;48.898;9.182;2022-09-02T01:17:50;5.78;;;5.28;;
3307;SDS011;1666;48.898;9.182;2022-09-02T01:20:21;5.50;;;4.97;;
3307;SDS011;1666;48.898;9.182;2022-09-02T01:22:55;5.40;;;4.90;;
3307;SDS011;1666;48.898;9.182;2022-09-02T01:25:27;6.10;;;5.13;;
3307;SDS011;1666;48.898;9.182;2022-09-02T01:27:59;5.30;;;4.80;;
3307;SDS011;1666;48.898;9.182;2022-09-02T01:30:29;6.72;;;4.90;;
3307;SDS011;1666;48.898;9.182;2022-09-02T01:33:00;5.10;;;4.60;;
3307;SDS011;1666;48.898;9.182;2022-09-02T01:35:31;7.00;;;4.65;;
3307;SDS011;1666;48.898;9.182;2022-09-02T01:38:03;5.75;;;4.95;;
3307;SDS011;1666;48.898;9.182;2022-09-02T01:40:33;5.10;;;4.60;;
3307;SDS011;1666;48.898;9.182;2022-09-02T01:43:05;5.47;;;4.53;;
3307;SDS011;1666;48.898;9.182;2022-09-02T01:45:37;4.40;;;4.00;;
3307;SDS011;1666;48.898;9.182;2022-09-02T01:48:08;5.15;;;4.70;;
3307;SDS011;1666;48.898;9.182;2022-09-02T01:50:45;5.40;;;4.65;;
3307;SDS011;1666;48.898;9.182;2022-09-02T01:53:19;6.63;;;4.88;;
3307;SDS011;1666;48.898;9.182;2022-09-02T01:55:49;4.97;;;4.55;;
3307;SDS011;1666;48.898;9.182;2022-09-02T01:58:19;5.57;;;4.80;;
3307;SDS011;1666;48.898;9.182;2022-09-02T02:00:49;4.88;;;4.47;;
3307;SDS011;1666;48.898;9.182;2022-09-02T02:03:20;8.05;;;4.43;;
3307;SDS011;1666;48.898;9.182;2022-09-02T02:05:50;5.05;;;4.28;;
3307;SDS011;1666;48.898;9.182;2022-09-02T02:08:23;5.03;;;4.18;;
3307;SDS011;1666;48.898;9.182;2022-09-02T02:10:53;4.65;;;4.25;;
3307;SDS011;1666;48.898;9.182;2022-09-02T02:13:23;6.03;;;4.30;;
3307;SDS011;1666;48.898;9.182;2022-09-02T02:15:53;5.25;;;4.70;;
3307;SDS011;1666;48.898;9.182;2022-09-02T02:18:23;6.25;;;4.40;;
3307;SDS011;1666;48.898;9.182;2022-09-02T02:20:52;5.05;;;4.55;;
3307;SDS011;1666;48.898;9.182;2022-09-02T02:23:25;4.30;;;3.90;;
3307;SDS011;1666;48.898;9.182;2022-09-02T02:25:55;4.78;;;4.32;;
3307;SDS011;1666;48.898;9.182;2022-09-02T02:28:25;5.15;;;4.65;;
3307;SDS011;1666;48.898;9.182;2022-09-02T02:30:55;4.93;;;4.43;;
3307;SDS011;1666;48.898;9.182;2022-09-02T02:33:26;4.80;;;4.30;;
3307;SDS011;1666;48.898;9.182;2022-09-02T02:36:02;5.38;;;4.32;;
3307;SDS011;1666;48.898;9.182;2022-09-02T02:38:35;6.80;;;5.13;;
3307;SDS011;1666;48.898;9.182;2022-09-02T02:41:06;6.03;;;4.43;;
3307;SDS011;1666;48.898;9.182;2022-09-02T02:43:36;5.10;;;4.57;;
3307;SDS011;1666;48.898;9.182;2022-09-02T02:46:07;5.28;;;4.38;;
3307;SDS011;1666;48.898;9.182;2022-09-02T02:48:37;5.10;;;4.57;;
3307;SDS011;1666;48.898;9.182;2022-09-02T02:51:07;5.28;;;4.78;;
3307;SDS011;1666;48.898;9.182;2022-09-02T02:53:40;7.50;;;4.47;;
3307;SDS011;1666;48.898;9.182;2022-09-02T02:56:10;8.45;;;4.70;;
3307;SDS011;1666;48.898;9.182;2022-09-02T02:58:40;5.53;;;4.60;;
3307;SDS011;1666;48.898;9.182;2022-09-02T03:01:10;6.38;;;4.97;;
3307;SDS011;1666;48.898;9.182;2022-09-02T03:03:40;6.43;;;4.20;;
3307;SDS011;1666;48.898;9.182;2022-09-02T03:06:10;5.75;;;4.50;;
3307;SDS011;1666;48.898;9.182;2022-09-02T03:08:47;5.57;;;5.00;;
3307;SDS011;1666;48.898;9.182;2022-09-02T03:11:19;5.78;;;5.28;;
3307;SDS011;1666;48.898;9.182;2022-09-02T03:13:51;6.47;;;5.88;;
3307;SDS011;1666;48.898;9.182;2022-09-02T03:16:20;5.57;;;5.07;;
3307;SDS011;1666;48.898;9.182;2022-09-02T03:18:51;6.18;;;5.57;;
3307;SDS011;1666;48.898;9.182;2022-09-02T03:21:20;6.32;;;5.72;;
3307;SDS011;1666;48.898;9.182;2022-09-02T03:23:53;6.78;;;5.97;;
3307;SDS011;1666;48.898;9.182;2022-09-02T03:26:23;6.95;;;6.25;;
3307;SDS011;1666;48.898;9.182;2022-09-02T03:28:54;7.22;;;5.97;;
3307;SDS011;1666;48.898;9.182;2022-09-02T03:31:25;6.93;;;6.22;;
3307;SDS011;1666;48.898;9.182;2022-09-02T03:33:56;7.50;;;5.80;;
3307;SDS011;1666;48.898;9.182;2022-09-02T03:36:27;8.80;;;6.18;;
3307;SDS011;1666;48.898;9.182;2022-09-02T03:39:02;7.03;;;6.15;;
3307;SDS011;1666;48.898;9.182;2022-09-02T03:41:35;6.97;;;6.28;;
3307;SDS011;1666;48.898;9.182;2022-09-02T03:44:07;6.47;;;5.90;;
3307;SDS011;1666;48.898;9.182;2022-09-02T03:46:37;9.10;;;7.32;;
3307;SDS011;1666;48.898;9.182;2022-09-02T03:49:07;6.75;;;6.15;;
3307;SDS011;1666;48.898;9.182;2022-09-02T03:51:38;6.32;;;5.65;;
3307;SDS011;1666;48.898;9.182;2022-09-02T03:54:12;7.13;;;5.53;;
3307;SDS011;1666;48.898;9.182;2022-09-02T03:56:42;6.80;;;6.10;;
3307;SDS011;1666;48.898;9.182;2022-09-02T03:59:12;7.13;;;6.35;;
3307;SDS011;1666;48.898;9.182;2022-09-02T04:01:42;8.48;;;6.97;;
3307;SDS011;1666;48.898;9.182;2022-09-02T04:04:12;8.85;;;7.30;;
3307;SDS011;1666;48.898;9.182;2022-09-02T04:06:48;8.02;;;7.32;;
3307;SDS011;1666;48.898;9.182;2022-09-02T04:09:20;7.93;;;7.03;;
3307;SDS011;1666;48.898;9.182;2022-09-02T04:11:50;8.38;;;7.57;;
3307;SDS011;1666;48.898;9.182;2022-09-02T04:14:20;7.88;;;7.07;;
3307;SDS011;1666;48.898;9.182;2022-09-02T04:16:50;8.57;;;7.35;;
3307;SDS011;1666;48.898;9.182;2022-09-02T04:19:20;9.45;;;7.10;;
3307;SDS011;1666;48.898;9.182;2022-09-02T04:21:50;7.85;;;7.05;;
3307;SDS011;1666;48.898;9.182;2022-09-02T04:24:22;7.72;;;7.03;;
3307;SDS011;1666;48.898;9.182;2022-09-02T04:26:52;8.30;;;7.00;;
3307;SDS011;1666;48.898;9.182;2022-09-02T04:29:29;7.72;;;6.88;;
3307;SDS011;1666;48.898;9.182;2022-09-02T04:31:59;7.53;;;6.85;;
3307;SDS011;1666;48.898;9.182;2022-09-02T04:34:29;8.07;;;7.22;;
3307;SDS011;1666;48.898;9.182;2022-09-02T04:36:59;8.40;;;7.60;;
3307;SDS011;1666;48.898;9.182;2022-09-02T04:39:32;9.63;;;7.57;;
3307;SDS011;1666;48.898;9.182;2022-09-02T04:42:02;7.75;;;6.72;;
3307;SDS011;1666;48.898;9.182;2022-09-02T04:44:32;7.78;;;6.97;;
3307;SDS011;1666;48.898;9.182;2022-09-02T04:47:02;8.95;;;6.95;;
3307;SDS011;1666;48.898;9.182;2022-09-02T04:49:32;7.03;;;6.22;;
3307;SDS011;1666;48.898;9.182;2022-09-02T04:52:02;6.90;;;6.18;;
3307;SDS011;1666;48.898;9.182;2022-09-02T04:54:35;7.15;;;6.45;;
3307;SDS011;1666;48.898;9.182;2022-09-02T04:57:05;7.75;;;6.45;;
3307;SDS011;1666;48.898;9.182;2022-09-02T04:59:35;7.85;;;6.20;;
3307;SDS011;1666;48.898;9.182;2022-09-02T05:02:05;7.55;;;6.25;;
3307;SDS011;1666;48.898;9.182;2022-09-02T05:04:36;6.95;;;6.15;;
3307;SDS011;1666;48.898;9.182;2022-09-02T05:07:06;6.93;;;5.72;;
3307;SDS011;1666;48.898;9.182;2022-09-02T05:09:40;9.00;;;6.38;;
3307;SDS011;1666;48.898;9.182;2022-09-02T05:12:11;7.93;;;5.97;;
3307;SDS011;1666;48.898;9.182;2022-09-02T05:14:41;6.63;;;5.93;;
3307;SDS011;1666;48.898;9.182;2022-09-02T05:17:14;9.90;;;5.90;;
3307;SDS011;1666;48.898;9.182;2022-09-02T05:19:44;8.15;;;5.55;;
3307;SDS011;1666;48.898;9.182;2022-09-02T05:22:14;6.53;;;5.20;;
3307;SDS011;1666;48.898;9.182;2022-09-02T05:24:47;7.25;;;5.20;;
3307;SDS011;1666;48.898;9.182;2022-09-02T05:27:17;5.93;;;5.30;;
3307;SDS011;1666;48.898;9.182;2022-09-02T05:29:53;5.55;;;4.93;;
3307;SDS011;1666;48.898;9.182;2022-09-02T05:32:25;11.88;;;5.25;;
3307;SDS011;1666;48.898;9.182;2022-09-02T05:35:02;5.50;;;5.00;;
3307;SDS011;1666;48.898;9.182;2022-09-02T05:37:33;5.93;;;5.00;;
3307;SDS011;1666;48.898;9.182;2022-09-02T05:40:06;5.93;;;5.13;;
3307;SDS011;1666;48.898;9.182;2022-09-02T05:42:40;4.68;;;4.07;;
3307;SDS011;1666;48.898;9.182;2022-09-02T05:45:14;8.73;;;5.43;;
3307;SDS011;1666;48.898;9.182;2022-09-02T05:47:43;5.70;;;5.00;;
3307;SDS011;1666;48.898;9.182;2022-09-02T05:50:13;7.40;;;5.47;;
3307;SDS011;1666;48.898;9.182;2022-09-02T05:52:46;5.22;;;4.80;;
3307;SDS011;1666;48.898;9.182;2022-09-02T05:55:20;8.20;;;5.25;;
3307;SDS011;1666;48.898;9.182;2022-09-02T05:57:50;5.45;;;4.80;;
3307;SDS011;1666;48.898;9.182;2022-09-02T06:00:20;5.82;;;4.18;;
3307;SDS011;1666;48.898;9.182;2022-09-02T06:02:50;4.40;;;3.58;;
3307;SDS011;1666;48.898;9.182;2022-09-02T06:05:21;3.78;;;3.38;;
3307;SDS011;1666;48.898;9.182;2022-09-02T06:07:51;7.53;;;3.80;;
3307;SDS011;1666;48.898;9.182;2022-09-02T06:10:23;4.47;;;3.53;;
3307;SDS011;1666;48.898;9.182;2022-09-02T06:12:53;3.60;;;3.30;;
3307;SDS011;1666;48.898;9.182;2022-09-02T06:15:23;5.32;;;3.22;;
3307;SDS011;1666;48.898;9.182;2022-09-02T06:17:56;4.72;;;3.00;;
3307;SDS011;1666;48.898;9.182;2022-09-02T06:20:26;5.10;;;3.50;;
3307;SDS011;1666;48.898;9.182;2022-09-02T06:22:58;4.82;;;3.05;;
3307;SDS011;1666;48.898;9.182;2022-09-02T06:25:30;3.22;;;2.92;;
3307;SDS011;1666;48.898;9.182;2022-09-02T06:28:00;4.70;;;3.15;;
3307;SDS011;1666;48.898;9.182;2022-09-02T06:30:33;4.70;;;3.13;;
3307;SDS011;1666;48.898;9.182;2022-09-02T06:33:03;6.50;;;3.90;;
3307;SDS011;1666;48.898;9.182;2022-09-02T06:35:35;5.13;;;3.47;;
3307;SDS011;1666;48.898;9.182;2022-09-02T06:38:06;3.95;;;2.97;;
3307;SDS011;1666;48.898;9.182;2022-09-02T06:40:43;3.28;;;2.97;;
3307;SDS011;1666;48.898;9.182;2022-09-02T06:43:14;5.70;;;3.58;;
3307;SDS011;1666;48.898;9.182;2022-09-02T06:45:45;6.57;;;3.13;;
3307;SDS011;1666;48.898;9.182;2022-09-02T06:48:14;4.50;;;2.95;;
3307;SDS011;1666;48.898;9.182;2022-09-02T06:50:45;4.43;;;2.92;;
3307;SDS011;1666;48.898;9.182;2022-09-02T06:53:15;4.75;;;3.20;;
3307;SDS011;1666;48.898;9.182;2022-09-02T06:55:47;6.63;;;2.95;;
3307;SDS011;1666;48.898;9.182;2022-09-02T06:58:18;4.28;;;2.88;;
3307;SDS011;1666;48.898;9.182;2022-09-02T07:00:48;6.72;;;5.47;;
3307;SDS011;1666;48.898;9.182;2022-09-02T07:03:18;6.47;;;4.03;;
3307;SDS011;1666;48.898;9.182;2022-09-02T07:06:01;4.90;;;2.63;;
3307;SDS011;1666;48.898;9.182;2022-09-02T07:08:35;5.43;;;2.97;;
3307;SDS011;1666;48.898;9.182;2022-09-02T07:11:14;7.30;;;3.10;;
3307;SDS011;1666;48.898;9.182;2022-09-02T07:13:46;9.88;;;3.13;;
3307;SDS011;1666;48.898;9.182;2022-09-02T07:16:16;3.75;;;2.92;;
3307;SDS011;1666;48.898;9.182;2022-09-02T07:18:52;2.85;;;2.60;;
3307;SDS011;1666;48.898;9.182;2022-09-02T07:21:23;7.85;;;3.08;;
3307;SDS011;1666;48.898;9.182;2022-09-02T07:23:54;8.05;;;3.38;;
3307;SDS011;1666;48.898;9.182;2022-09-02T07:26:28;5.93;;;2.85;;
3307;SDS011;1666;48.898;9.182;2022-09-02T07:28:58;5.25;;;3.33;;
3307;SDS011;1666;48.898;9.182;2022-09-02T07:31:28;5.57;;;3.30;;
3307;SDS011;1666;48.898;9.182;2022-09-02T07:33:58;4.50;;;3.22;;
3307;SDS011;1666;48.898;9.182;2022-09-02T07:36:28;4.70;;;2.83;;
3307;SDS011;1666;48.898;9.182;2022-09-02T07:38:58;3.83;;;2.55;;
3307;SDS011;1666;48.898;9.182;2022-09-02T07:41:30;4.82;;;3.28;;
3307;SDS011;1666;48.898;9.182;2022-09-02T07:44:00;5.30;;;3.17;;
3307;SDS011;1666;48.898;9.182;2022-09-02T07:46:31;4.28;;;2.88;;
3307;SDS011;1666;48.898;9.182;2022-09-02T07:49:04;3.40;;;3.00;;
3307;SDS011;1666;48.898;9.182;2022-09-02T07:51:36;3.65;;;2.40;;
3307;SDS011;1666;48.898;9.182;2022-09-02T07:54:09;3.20;;;2.30;;
3307;SDS011;1666;48.898;9.182;2022-09-02T07:56:42;6.10;;;2.38;;
3307;SDS011;1666;48.898;9.182;2022-09-02T07:59:15;5.30;;;2.55;;
3307;SDS011;1666;48.898;9.182;2022-09-02T08:01:45;3.03;;;2.30;;
3307;SDS011;1666;48.898;9.182;2022-09-02T08:04:17;3.03;;;2.40;;
3307;SDS011;1666;48.898;9.182;2022-09-02T08:06:48;4.47;;;2.22;;
3307;SDS011;1666;48.898;9.182;2022-09-02T08:09:19;2.28;;;2.00;;
3307;SDS011;1666;48.898;9.182;2022-09-02T08:11:53;6.15;;;2.60;;
3307;SDS011;1666;48.898;9.182;2022-09-02T08:14:24;3.45;;;2.28;;
3307;SDS011;1666;48.898;9.182;2022-09-02T08:16:55;2.53;;;1.80;;
3307;SDS011;1666;48.898;9.182;2022-09-02T08:19:26;4.03;;;2.20;;
3307;SDS011;1666;48.898;9.182;2022-09-02T08:22:00;3.22;;;2.17;;
3307;SDS011;1666;48.898;9.182;2022-09-02T08:24:31;4.18;;;2.05;;
3307;SDS011;1666;48.898;9.182;2022-09-02T08:27:04;3.03;;;2.20;;
3307;SDS011;1666;48.898;9.182;2022-09-02T08:29:34;2.92;;;1.77;;
3307;SDS011;1666;48.898;9.182;2022-09-02T08:32:04;4.38;;;1.67;;
3307;SDS011;1666;48.898;9.182;2022-09-02T08:34:34;2.42;;;1.88;;
3307;SDS011;1666;48.898;9.182;2022-09-02T08:37:04;5.22;;;1.80;;
3307;SDS011;1666;48.898;9.182;2022-09-02T08:39:34;3.42;;;2.00;;
3307;SDS011;1666;48.898;9.182;2022-09-02T08:42:08;2.13;;;1.75;;
3307;SDS011;1666;48.898;9.182;2022-09-02T08:44:44;5.95;;;1.80;;
3307;SDS011;1666;48.898;9.182;2022-09-02T08:47:15;2.53;;;1.70;;
3307;SDS011;1666;48.898;9.182;2022-09-02T08:49:50;3.08;;;1.70;;
3307;SDS011;1666;48.898;9.182;2022-09-02T08:52:25;3.53;;;1.67;;
3307;SDS011;1666;48.898;9.182;2022-09-02T08:55:00;4.93;;;1.77;;
3307;SDS011;1666;48.898;9.182;2022-09-02T08:57:34;1.63;;;1.52;;
3307;SDS011;1666;48.898;9.182;2022-09-02T09:00:10;3.22;;;1.73;;
3307;SDS011;1666;48.898;9.182;2022-09-02T09:02:44;2.85;;;2.25;;
3307;SDS011;1666;48.898;9.182;2022-09-02T09:05:34;2.30;;;1.30;;
3307;SDS011;1666;48.898;9.182;2022-09-02T09:08:14;3.28;;;1.50;;
3307;SDS011;1666;48.898;9.182;2022-09-02T09:10:50;2.75;;;1.52;;
3307;SDS011;1666;48.898;9.182;2022-09-02T09:13:45;2.95;;;1.67;;
3307;SDS011;1666;48.898;9.182;2022-09-02T09:16:39;2.72;;;1.70;;
3307;SDS011;1666;48.898;9.182;2022-09-02T09:19:13;2.75;;;1.80;;
3307;SDS011;1666;48.898;9.182;2022-09-02T09:21:45;4.57;;;1.90;;
3307;SDS011;1666;48.898;9.182;2022-09-02T09:24:20;1.67;;;1.20;;
3307;SDS011;1666;48.898;9.182;2022-09-02T09:26:54;2.50;;;1.20;;
3307;SDS011;1666;48.898;9.182;2022-09-02T09:29:29;2.13;;;1.50;;
3307;SDS011;1666;48.898;9.182;2022-09-02T09:32:02;5.47;;;4.00;;
3307;SDS011;1666;48.898;9.182;2022-09-02T09:37:27;3.35;;;1.35;;
3307;SDS011;1666;48.898;9.182;2022-09-02T09:43:10;2.40;;;1.40;;
3307;SDS011;1666;48.898;9.182;2022-09-02T09:45:45;1.20;;;1.10;;
3307;SDS011;1666;48.898;9.182;2022-09-02T09:48:18;1.88;;;1.20;;
3307;SDS011;1666;48.898;9.182;2022-09-02T09:51:08;5.30;;;1.35;;
3307;SDS011;1666;48.898;9.182;2022-09-02T09:53:41;1.45;;;1.13;;
3307;SDS011;1666;48.898;9.182;2022-09-02T09:56:26;2.67;;;1.30;;
3307;SDS011;1666;48.898;9.182;2022-09-02T09:59:04;2.00;;;1.23;;
3307;SDS011;1666;48.898;9.182;2022-09-02T10:01:39;1.08;;;0.98;;
3307;SDS011;1666;48.898;9.182;2022-09-02T10:04:24;1.92;;;1.17;;
3307;SDS011;1666;48.898;9.182;2022-09-02T10:07:09;3.72;;;1.20;;
3307;SDS011;1666;48.898;9.182;2022-09-02T10:09:39;3.63;;;1.90;;
3307;SDS011;1666;48.898;9.182;2022-09-02T10:12:10;1.63;;;1.10;;
3307;SDS011;1666;48.898;9.182;2022-09-02T10:14:42;1.77;;;1.27;;
3307;SDS011;1666;48.898;9.182;2022-09-02T10:17:20;3.97;;;1.20;;
3307;SDS011;1666;48.898;9.182;2022-09-02T10:20:02;1.80;;;1.20;;
3307;SDS011;1666;48.898;9.182;2022-09-02T10:25:50;2.38;;;1.50;;
3307;SDS011;1666;48.898;9.182;2022-09-02T10:28:31;3.00;;;1.20;;
3307;SDS011;1666;48.898;9.182;2022-09-02T10:31:13;2.38;;;1.33;;
3307;SDS011;1666;48.898;9.182;2022-09-02T10:33:55;2.33;;;1.20;;
3307;SDS011;1666;48.898;9.182;2022-09-02T10:36:36;4.55;;;1.73;;
3307;SDS011;1666;48.898;9.182;2022-09-02T10:39:18;1.20;;;1.10;;
3307;SDS011;1666;48.898;9.182;2022-09-02T10:41:55;3.10;;;1.38;;
3307;SDS011;1666;48.898;9.182;2022-09-02T10:44:34;2.90;;;1.25;;
3307;SDS011;1666;48.898;9.182;2022-09-02T10:47:14;3.38;;;1.10;;
3307;SDS011;1666;48.898;9.182;2022-09-02T10:50:01;1.88;;;1.23;;
3307;SDS011;1666;48.898;9.182;2022-09-02T10:55:39;1.67;;;1.08;;
3307;SDS011;1666;48.898;9.182;2022-09-02T10:58:17;3.80;;;1.35;;
3307;SDS011;1666;48.898;9.182;2022-09-02T11:00:52;1.70;;;1.27;;
3307;SDS011;1666;48.898;9.182;2022-09-02T11:03:26;3.00;;;1.30;;
3307;SDS011;1666;48.898;9.182;2022-09-02T11:06:06;1.10;;;1.00;;
3307;SDS011;1666;48.898;9.182;2022-09-02T11:08:42;2.65;;;1.30;;
3307;SDS011;1666;48.898;9.182;2022-09-02T11:11:17;1.00;;;0.90;;
3307;SDS011;1666;48.898;9.182;2022-09-02T11:13:52;4.05;;;1.00;;
3307;SDS011;1666;48.898;9.182;2022-09-02T11:16:28;2.00;;;1.05;;
3307;SDS011;1666;48.898;9.182;2022-09-02T11:19:22;2.80;;;1.13;;
3307;SDS011;1666;48.898;9.182;2022-09-02T11:22:03;1.73;;;1.13;;
3307;SDS011;1666;48.898;9.182;2022-09-02T11:24:43;2.70;;;1.17;;
3307;SDS011;1666;48.898;9.182;2022-09-02T11:27:20;5.15;;;1.25;;
3307;SDS011;1666;48.898;9.182;2022-09-02T11:30:10;1.50;;;1.02;;
3307;SDS011;1666;48.898;9.182;2022-09-02T11:32:42;1.58;;;0.90;;
3307;SDS011;1666;48.898;9.182;2022-09-02T11:35:17;5.55;;;1.48;;
3307;SDS011;1666;48.898;9.182;2022-09-02T11:37:56;3.53;;;1.20;;
3307;SDS011;1666;48.898;9.182;2022-09-02T11:40:30;2.00;;;1.00;;
3307;SDS011;1666;48.898;9.182;2022-09-02T11:43:43;2.92;;;1.20;;
3307;SDS011;1666;48.898;9.182;2022-09-02T11:46:26;1.80;;;1.30;;
3307;SDS011;1666;48.898;9.182;2022-09-02T11:49:21;5.53;;;1.20;;
3307;SDS011;1666;48.898;9.182;2022-09-02T11:52:02;1.20;;;1.10;;
3307;SDS011;1666;48.898;9.182;2022-09-02T11:55:13;1.27;;;1.13;;
3307;SDS011;1666;48.898;9.182;2022-09-02T11:57:49;2.85;;;0.90;;
3307;SDS011;1666;48.898;9.182;2022-09-02T12:00:25;1.20;;;0.90;;
3307;SDS011;1666;48.898;9.182;2022-09-02T12:03:01;2.55;;;1.13;;
3307;SDS011;1666;48.898;9.182;2022-09-02T12:06:05;1.73;;;0.93;;
3307;SDS011;1666;48.898;9.182;2022-09-02T12:11:41;1.38;;;0.90;;
3307;SDS011;1666;48.898;9.182;2022-09-02T12:17:12;1.48;;;1.08;;
3307;SDS011;1666;48.898;9.182;2022-09-02T12:20:09;1.33;;;1.20;;
3307;SDS011;1666;48.898;9.182;2022-09-02T12:22:59;3.50;;;1.10;;
3307;SDS011;1666;48.898;9.182;2022-09-02T12:25:33;1.10;;;1.00;;
3307;SDS011;1666;48.898;9.182;2022-09-02T12:28:12;2.28;;;0.98;;
3307;SDS011;1666;48.898;9.182;2022-09-02T12:31:09;2.97;;;1.60;;
3307;SDS011;1666;48.898;9.182;2022-09-02T12:33:49;2.20;;;1.08;;
3307;SDS011;1666;48.898;9.182;2022-09-02T12:42:23;3.45;;;1.17;;
3307;SDS011;1666;48.898;9.182;2022-09-02T12:45:08;1.25;;;0.98;;
3307;SDS011;1666;48.898;9.182;2022-09-02T12:47:48;4.32;;;1.55;;
3307;SDS011;1666;48.898;9.182;2022-09-02T12:50:26;1.98;;;1.10;;
3307;SDS011;1666;48.898;9.182;2022-09-02T12:53:10;2.17;;;1.00;;
3307;SDS011;1666;48.898;9.182;2022-09-02T12:55:55;1.67;;;1.02;;
3307;SDS011;1666;48.898;9.182;2022-09-02T12:58:28;3.78;;;0.95;;
3307;SDS011;1666;48.898;9.182;2022-09-02T13:01:08;2.63;;;0.90;;
3307;SDS011;1666;48.898;9.182;2022-09-02T13:03:57;1.83;;;0.90;;
3307;SDS011;1666;48.898;9.182;2022-09-02T13:07:03;1.67;;;1.30;;
3307;SDS011;1666;48.898;9.182;2022-09-02T13:13:18;1.33;;;0.80;;
3307;SDS011;1666;48.898;9.182;2022-09-02T13:16:18;3.97;;;1.15;;
3307;SDS011;1666;48.898;9.182;2022-09-02T13:19:11;5.72;;;1.20;;
3307;SDS011;1666;48.898;9.182;2022-09-02T13:22:02;2.80;;;1.10;;
3307;SDS011;1666;48.898;9.182;2022-09-02T13:24:59;4.40;;;1.30;;
3307;SDS011;1666;48.898;9.182;2022-09-02T13:27:57;4.30;;;1.50;;
3307;SDS011;1666;48.898;9.182;2022-09-02T13:30:40;1.70;;;1.00;;
3307;SDS011;1666;48.898;9.182;2022-09-02T13:33:41;4.28;;;0.93;;
3307;SDS011;1666;48.898;9.182;2022-09-02T13:36:17;4.30;;;1.33;;
3307;SDS011;1666;48.898;9.182;2022-09-02T13:38:52;69.38;;;4.45;;
3307;SDS011;1666;48.898;9.182;2022-09-02T13:41:29;3.95;;;1.30;;
3307;SDS011;1666;48.898;9.182;2022-09-02T13:44:06;2.33;;;0.93;;
3307;SDS011;1666;48.898;9.182;2022-09-02T13:46:41;1.52;;;1.17;;
3307;SDS011;1666;48.898;9.182;2022-09-02T13:51:52;1.30;;;1.20;;
3307;SDS011;1666;48.898;9.182;2022-09-02T13:54:30;2.97;;;0.90;;
3307;SDS011;1666;48.898;9.182;2022-09-02T13:57:02;3.28;;;1.48;;
3307;SDS011;1666;48.898;9.182;2022-09-02T13:59:36;2.08;;;1.10;;
3307;SDS011;1666;48.898;9.182;2022-09-02T14:04:57;5.10;;;1.98;;
3307;SDS011;1666;48.898;9.182;2022-09-02T14:07:31;4.10;;;1.20;;
3307;SDS011;1666;48.898;9.182;2022-09-02T14:10:06;2.50;;;1.13;;
3307;SDS011;1666;48.898;9.182;2022-09-02T14:12:38;3.38;;;1.20;;
3307;SDS011;1666;48.898;9.182;2022-09-02T14:15:11;4.45;;;1.20;;
3307;SDS011;1666;48.898;9.182;2022-09-02T14:17:42;8.38;;;1.30;;
3307;SDS011;1666;48.898;9.182;2022-09-02T14:20:18;1.35;;;1.08;;
3307;SDS011;1666;48.898;9.182;2022-09-02T14:22:52;4.13;;;1.30;;
3307;SDS011;1666;48.898;9.182;2022-09-02T14:25:23;3.67;;;1.30;;
3307;SDS011;1666;48.898;9.182;2022-09-02T14:27:55;2.55;;;1.10;;
3307;SDS011;1666;48.898;9.182;2022-09-02T14:30:28;3.30;;;1.33;;
3307;SDS011;1666;48.898;9.182;2022-09-02T14:35:57;5.18;;;1.40;;
3307;SDS011;1666;48.898;9.182;2022-09-02T14:38:28;15.15;;;1.77;;
3307;SDS011;1666;48.898;9.182;2022-09-02T14:41:04;2.95;;;1.20;;
3307;SDS011;1666;48.898;9.182;2022-09-02T14:43:40;4.47;;;1.00;;
3307;SDS011;1666;48.898;9.182;2022-09-02T14:46:14;2.25;;;1.20;;
3307;SDS011;1666;48.898;9.182;2022-09-02T14:48:53;3.72;;;1.40;;
3307;SDS011;1666;48.898;9.182;2022-09-02T14:51:30;1.80;;;1.00;;
3307;SDS011;1666;48.898;9.182;2022-09-02T14:54:04;2.05;;;1.50;;
3307;SDS011;1666;48.898;9.182;2022-09-02T14:56:42;2.15;;;1.25;;
3307;SDS011;1666;48.898;9.182;2022-09-02T14:59:14;1.33;;;1.20;;
3307;SDS011;1666;48.898;9.182;2022-09-02T15:01:44;2.90;;;1.33;;
3307;SDS011;1666;48.898;9.182;2022-09-02T15:04:17;4.65;;;1.40;;
3307;SDS011;1666;48.898;9.182;2022-09-02T15:06:50;7.43;;;1.92;;
3307;SDS011;1666;48.898;9.182;2022-09-02T15:09:20;2.28;;;1.45;;
3307;SDS011;1666;48.898;9.182;2022-09-02T15:11:50;3.67;;;1.27;;
3307;SDS011;1666;48.898;9.182;2022-09-02T15:14:28;1.52;;;1.10;;
3307;SDS011;1666;48.898;9.182;2022-09-02T15:16:58;1.27;;;1.02;;
3307;SDS011;1666;48.898;9.182;2022-09-02T15:19:28;1.40;;;1.00;;
3307;SDS011;1666;48.898;9.182;2022-09-02T15:22:01;1.95;;;1.30;;
3307;SDS011;1666;48.898;9.182;2022-09-02T15:24:34;1.80;;;1.40;;
3307;SDS011;1666;48.898;9.182;2022-09-02T15:27:04;1.98;;;1.30;;
3307;SDS011;1666;48.898;9.182;2022-09-02T15:29:34;1.67;;;1.50;;
3307;SDS011;1666;48.898;9.182;2022-09-02T15:32:04;2.30;;;1.30;;
3307;SDS011;1666;48.898;9.182;2022-09-02T15:34:35;3.83;;;1.50;;
3307;SDS011;1666;48.898;9.182;2022-09-02T15:37:07;4.80;;;1.38;;
3307;SDS011;1666;48.898;9.182;2022-09-02T15:39:38;2.42;;;1.40;;
3307;SDS011;1666;48.898;9.182;2022-09-02T15:42:09;1.67;;;1.25;;
3307;SDS011;1666;48.898;9.182;2022-09-02T15:44:40;3.50;;;1.50;;
3307;SDS011;1666;48.898;9.182;2022-09-02T15:47:10;1.35;;;1.10;;
3307;SDS011;1666;48.898;9.182;2022-09-02T15:49:39;2.50;;;1.20;;
3307;SDS011;1666;48.898;9.182;2022-09-02T15:52:12;3.70;;;1.10;;
3307;SDS011;1666;48.898;9.182;2022-09-02T15:54:42;2.88;;;1.20;;
3307;SDS011;1666;48.898;9.182;2022-09-02T15:57:12;1.70;;;1.33;;
3307;SDS011;1666;48.898;9.182;2022-09-02T15:59:41;2.53;;;1.40;;
3307;SDS011;1666;48.898;9.182;2022-09-02T16:02:11;1.10;;;1.00;;
3307;SDS011;1666;48.898;9.182;2022-09-02T16:04:41;2.10;;;1.50;;
3307;SDS011;1666;48.898;9.182;2022-09-02T16:07:14;2.88;;;1.63;;
3307;SDS011;1666;48.898;9.182;2022-09-02T16:09:44;6.07;;;2.30;;
3307;SDS011;1666;48.898;9.182;2022-09-02T16:12:14;1.73;;;1.20;;
3307;SDS011;1666;48.898;9.182;2022-09-02T16:14:43;2.10;;;1.20;;
3307;SDS011;1666;48.898;9.182;2022-09-02T16:17:16;2.25;;;1.30;;
3307;SDS011;1666;48.898;9.182;2022-09-02T16:19:46;2.75;;;1.20;;
3307;SDS011;1666;48.898;9.182;2022-09-02T16:22:18;2.53;;;1.35;;
3307;SDS011;1666;48.898;9.182;2022-09-02T16:24:48;2.15;;;1.50;;
3307;SDS011;1666;48.898;9.182;2022-09-02T16:27:18;3.25;;;1.40;;
3307;SDS011;1666;48.898;9.182;2022-09-02T16:30:09;2.47;;;1.60;;
3307;SDS011;1666;48.898;9.182;2022-09-02T16:32:39;4.95;;;1.48;;
3307;SDS011;1666;48.898;9.182;2022-09-02T16:35:09;2.53;;;1.17;;